createdAt,value
2022-07-26T00:02:20.216Z,1.75
2022-07-26T00:04:46.801Z,1.70
2022-07-26T00:07:13.263Z,1.67
2022-07-26T00:09:41.072Z,1.65
2022-07-26T00:12:10.461Z,1.67
2022-07-26T00:14:37.525Z,1.50
2022-07-26T00:17:05.634Z,1.60
2022-07-26T00:19:32.105Z,1.88
2022-07-26T00:22:27.819Z,1.75
2022-07-26T00:24:54.221Z,1.98
2022-07-26T00:27:20.646Z,1.45
2022-07-26T00:29:47.002Z,2.30
2022-07-26T00:32:13.452Z,1.48
2022-07-26T00:34:39.886Z,1.63
2022-07-26T00:37:06.256Z,1.90
2022-07-26T00:39:32.655Z,2.15
2022-07-26T00:41:59.124Z,1.80
2022-07-26T00:44:25.516Z,1.83
2022-07-26T00:46:53.000Z,1.70
2022-07-26T00:49:19.458Z,1.80
2022-07-26T00:51:46.707Z,1.92
2022-07-26T00:54:13.267Z,1.80
2022-07-26T00:56:39.992Z,1.85
2022-07-26T00:59:06.851Z,1.83
2022-07-26T01:01:33.531Z,1.67
2022-07-26T01:04:00.045Z,1.85
2022-07-26T01:06:27.519Z,2.03
2022-07-26T01:08:54.525Z,1.90
2022-07-26T01:11:21.037Z,1.58
2022-07-26T01:13:50.633Z,1.77
2022-07-26T01:16:17.827Z,1.67
2022-07-26T01:18:44.336Z,1.88
2022-07-26T01:21:13.646Z,1.95
2022-07-26T01:23:42.514Z,1.98
2022-07-26T01:26:09.983Z,1.83
2022-07-26T01:28:38.888Z,1.67
2022-07-26T01:31:07.011Z,1.70
2022-07-26T01:33:34.573Z,2.10
2022-07-26T01:36:01.678Z,2.00
2022-07-26T01:38:28.381Z,1.98
2022-07-26T01:40:54.915Z,1.77
2022-07-26T01:43:21.358Z,1.90
2022-07-26T01:45:47.935Z,2.13
2022-07-26T01:48:14.601Z,2.10
2022-07-26T01:50:41.129Z,2.10
2022-07-26T01:53:07.531Z,2.20
2022-07-26T01:55:34.497Z,1.95
2022-07-26T01:58:00.960Z,2.13
2022-07-26T02:00:36.346Z,2.15
2022-07-26T02:05:29.879Z,2.30
2022-07-26T02:07:56.325Z,2.33
2022-07-26T02:10:23.452Z,2.17
2022-07-26T02:12:50.380Z,1.88
2022-07-26T02:15:16.776Z,2.15
2022-07-26T02:17:43.369Z,2.20
2022-07-26T02:20:10.187Z,2.05
2022-07-26T02:22:36.593Z,2.20
2022-07-26T02:25:05.761Z,2.30
2022-07-26T02:27:32.830Z,2.33
2022-07-26T02:29:59.264Z,2.28
2022-07-26T02:32:25.940Z,2.28
2022-07-26T02:34:52.328Z,2.08
2022-07-26T02:37:18.781Z,2.08
2022-07-26T02:39:45.151Z,2.20
2022-07-26T02:42:11.574Z,1.85
2022-07-26T02:44:38.005Z,1.92
2022-07-26T02:47:04.477Z,2.08
2022-07-26T02:49:30.882Z,2.22
2022-07-26T02:51:57.373Z,1.77
2022-07-26T02:54:23.810Z,2.15
2022-07-26T02:56:50.155Z,1.70
2022-07-26T02:59:16.620Z,2.15
2022-07-26T03:01:43.032Z,2.03
2022-07-26T03:04:09.771Z,2.08
2022-07-26T03:06:36.495Z,2.38
2022-07-26T03:09:04.095Z,2.55
2022-07-26T03:11:30.455Z,2.42
2022-07-26T03:13:56.825Z,2.17
2022-07-26T03:16:27.484Z,2.08
2022-07-26T03:18:55.923Z,2.55
2022-07-26T03:21:22.288Z,1.70
2022-07-26T03:23:48.683Z,2.05
2022-07-26T03:26:15.610Z,2.00
2022-07-26T03:28:42.565Z,2.17
2022-07-26T03:31:09.056Z,2.17
2022-07-26T03:33:35.516Z,1.95
2022-07-26T03:36:01.900Z,1.98
2022-07-26T03:38:28.387Z,2.45
2022-07-26T03:40:54.790Z,2.15
2022-07-26T03:43:23.190Z,1.88
2022-07-26T03:45:50.528Z,2.03
2022-07-26T03:48:17.019Z,2.10
2022-07-26T03:50:43.440Z,2.53
2022-07-26T03:53:09.851Z,2.30
2022-07-26T03:55:54.753Z,2.55
2022-07-26T03:58:21.146Z,2.08
2022-07-26T04:00:47.546Z,2.40
2022-07-26T04:03:13.972Z,2.35
2022-07-26T04:05:40.595Z,1.98
2022-07-26T04:08:15.187Z,2.35
2022-07-26T04:10:45.596Z,2.00
2022-07-26T04:13:11.943Z,2.45
2022-07-26T04:15:38.310Z,2.05
2022-07-26T04:18:04.808Z,2.05
2022-07-26T04:20:31.168Z,2.40
2022-07-26T04:22:57.567Z,2.35
2022-07-26T04:25:24.168Z,2.35
2022-07-26T04:27:50.592Z,2.10
2022-07-26T04:30:17.006Z,2.50
2022-07-26T04:32:46.435Z,2.70
2022-07-26T04:35:13.624Z,2.40
2022-07-26T04:37:42.582Z,2.40
2022-07-26T04:42:37.322Z,2.22
2022-07-26T04:45:08.313Z,2.42
2022-07-26T04:47:35.041Z,2.22
2022-07-26T04:50:01.953Z,2.47
2022-07-26T04:52:28.536Z,2.03
2022-07-26T04:54:54.891Z,2.30
2022-07-26T04:57:21.279Z,2.33
2022-07-26T05:00:03.352Z,3.22
2022-07-26T05:02:34.698Z,2.33
2022-07-26T05:05:01.384Z,3.00
2022-07-26T05:07:27.832Z,3.47
2022-07-26T05:09:54.225Z,4.25
2022-07-26T05:12:20.686Z,3.00
2022-07-26T05:14:47.039Z,2.08
2022-07-26T05:17:13.884Z,2.47
2022-07-26T05:19:48.931Z,2.72
2022-07-26T05:22:15.587Z,2.28
2022-07-26T05:24:42.055Z,2.10
2022-07-26T05:27:08.447Z,2.80
2022-07-26T05:29:34.890Z,3.45
2022-07-26T05:32:01.295Z,2.95
2022-07-26T05:34:27.929Z,2.42
2022-07-26T05:36:54.563Z,2.33
2022-07-26T05:39:20.972Z,2.28
2022-07-26T05:41:47.321Z,3.25
2022-07-26T05:44:13.709Z,2.13
2022-07-26T05:46:40.061Z,2.92
2022-07-26T05:49:07.124Z,2.90
2022-07-26T05:51:33.821Z,2.92
2022-07-26T05:54:00.371Z,3.42
2022-07-26T05:56:26.886Z,2.55
2022-07-26T05:58:53.247Z,2.30
2022-07-26T06:01:19.657Z,2.63
2022-07-26T06:03:46.166Z,2.35
2022-07-26T06:06:12.568Z,2.08
2022-07-26T06:08:39.725Z,2.10
2022-07-26T06:11:06.306Z,2.72
2022-07-26T06:13:32.719Z,2.10
2022-07-26T06:15:59.116Z,2.28
2022-07-26T06:18:25.473Z,1.70
2022-07-26T06:20:52.344Z,2.20
2022-07-26T06:23:33.540Z,1.90
2022-07-26T06:26:01.870Z,1.80
2022-07-26T06:28:28.691Z,1.95
2022-07-26T06:30:55.076Z,1.67
2022-07-26T06:33:21.542Z,1.90
2022-07-26T06:35:47.997Z,1.83
2022-07-26T06:38:14.434Z,1.70
2022-07-26T06:40:41.688Z,1.67
2022-07-26T06:43:08.074Z,1.70
2022-07-26T06:45:34.665Z,2.13
2022-07-26T06:48:01.167Z,1.80
2022-07-26T06:50:27.684Z,2.50
2022-07-26T06:52:54.095Z,1.88
2022-07-26T06:55:20.556Z,1.92
2022-07-26T06:57:50.055Z,1.83
2022-07-26T07:00:17.775Z,1.50
2022-07-26T07:02:44.261Z,1.40
2022-07-26T07:05:11.797Z,1.52
2022-07-26T07:07:38.359Z,1.60
2022-07-26T07:10:06.255Z,2.17
2022-07-26T07:12:32.840Z,1.80
2022-07-26T07:14:59.406Z,1.63
2022-07-26T07:17:25.888Z,1.52
2022-07-26T07:19:52.280Z,1.88
2022-07-26T07:22:18.688Z,1.38
2022-07-26T07:24:45.170Z,1.20
2022-07-26T07:27:13.075Z,1.55
2022-07-26T07:29:43.229Z,2.95
2022-07-26T07:32:18.509Z,2.97
2022-07-26T07:34:48.729Z,2.55
2022-07-26T07:37:16.884Z,1.25
2022-07-26T07:39:43.415Z,1.20
2022-07-26T07:42:09.797Z,1.00
2022-07-26T07:44:36.219Z,1.20
2022-07-26T07:47:02.647Z,1.05
2022-07-26T07:49:29.192Z,1.20
2022-07-26T07:51:55.662Z,1.08
2022-07-26T07:54:22.245Z,1.20
2022-07-26T07:56:49.202Z,1.05
2022-07-26T07:59:15.570Z,1.00
2022-07-26T08:01:42.638Z,1.10
2022-07-26T08:04:11.657Z,1.02
2022-07-26T08:06:38.209Z,1.40
2022-07-26T08:09:08.456Z,1.48
2022-07-26T08:11:36.019Z,1.23
2022-07-26T08:14:02.867Z,1.00
2022-07-26T08:16:30.322Z,0.93
2022-07-26T08:19:08.902Z,1.30
2022-07-26T08:21:35.508Z,1.23
2022-07-26T08:24:02.561Z,1.23
2022-07-26T08:26:29.045Z,1.80
2022-07-26T08:28:59.589Z,2.15
2022-07-26T08:31:27.784Z,1.10
2022-07-26T08:33:54.266Z,1.17
2022-07-26T08:36:20.659Z,1.30
2022-07-26T08:38:48.549Z,2.85
2022-07-26T08:41:18.798Z,1.23
2022-07-26T08:43:52.296Z,1.00
2022-07-26T08:46:25.307Z,0.98
2022-07-26T08:48:53.663Z,0.77
2022-07-26T08:51:23.075Z,1.00
2022-07-26T08:53:54.005Z,2.10
2022-07-26T08:56:20.391Z,1.88
2022-07-26T08:58:46.737Z,1.60
2022-07-26T09:01:13.577Z,1.50
2022-07-26T09:03:41.936Z,1.17
2022-07-26T09:06:17.823Z,1.60
2022-07-26T09:08:46.820Z,1.20
2022-07-26T09:11:31.105Z,1.55
2022-07-26T09:14:03.575Z,1.10
2022-07-26T09:16:30.809Z,1.17
2022-07-26T09:19:17.566Z,1.30
2022-07-26T09:21:44.009Z,1.10
2022-07-26T09:24:10.877Z,1.10
2022-07-26T09:26:37.387Z,1.25
2022-07-26T09:29:12.572Z,1.42
2022-07-26T09:31:39.931Z,1.30
2022-07-26T09:34:07.600Z,1.05
2022-07-26T09:36:53.924Z,1.27
2022-07-26T09:39:22.746Z,1.10
2022-07-26T09:42:27.295Z,1.35
2022-07-26T09:44:55.936Z,1.20
2022-07-26T09:47:23.114Z,1.20
2022-07-26T09:49:49.678Z,1.00
2022-07-26T09:52:20.378Z,1.00
2022-07-26T09:54:49.378Z,0.80
2022-07-26T09:57:18.192Z,1.20
2022-07-26T09:59:45.541Z,0.77
2022-07-26T10:02:13.985Z,0.95
2022-07-26T10:04:43.521Z,0.70
2022-07-26T10:07:10.608Z,0.98
2022-07-26T10:09:52.429Z,0.88
2022-07-26T10:12:20.688Z,0.85
2022-07-26T10:14:51.091Z,1.20
2022-07-26T10:17:31.662Z,0.77
2022-07-26T10:20:09.478Z,0.80
2022-07-26T10:22:47.968Z,0.85
2022-07-26T10:25:17.459Z,0.90
2022-07-26T10:27:55.244Z,0.80
2022-07-26T10:30:33.813Z,0.75
2022-07-26T10:33:03.912Z,1.08
2022-07-26T10:38:00.786Z,0.90
2022-07-26T10:40:30.258Z,0.85
2022-07-26T10:43:39.423Z,0.65
2022-07-26T10:46:13.240Z,0.70
2022-07-26T10:49:06.796Z,0.70
2022-07-26T10:51:39.321Z,0.68
2022-07-26T10:54:07.877Z,0.70
2022-07-26T10:56:34.626Z,0.77
2022-07-26T10:59:01.626Z,0.88
2022-07-26T11:01:39.276Z,0.77
2022-07-26T11:04:18.266Z,0.70
2022-07-26T11:06:45.495Z,0.75
2022-07-26T11:09:12.525Z,0.82
2022-07-26T11:11:39.704Z,0.77
2022-07-26T11:14:16.313Z,0.82
2022-07-26T11:16:47.342Z,0.70
2022-07-26T11:19:15.686Z,0.88
2022-07-26T11:24:09.559Z,1.00
2022-07-26T11:26:44.309Z,0.88
2022-07-26T11:29:12.751Z,1.25
2022-07-26T11:31:51.507Z,0.90
2022-07-26T11:34:28.653Z,0.90
2022-07-26T11:36:57.330Z,0.57
2022-07-26T11:39:33.031Z,0.75
2022-07-26T11:42:11.958Z,0.98
2022-07-26T11:44:43.464Z,0.60
2022-07-26T11:47:14.105Z,0.85
2022-07-26T11:50:00.818Z,0.88
2022-07-26T11:52:31.444Z,1.00
2022-07-26T11:54:58.095Z,0.80
2022-07-26T11:57:32.429Z,1.10
2022-07-26T12:00:00.282Z,0.90
2022-07-26T12:02:28.700Z,0.88
2022-07-26T12:05:23.106Z,1.10
2022-07-26T12:08:08.471Z,1.48
2022-07-26T12:10:34.910Z,1.27
2022-07-26T12:13:13.140Z,1.00
2022-07-26T12:15:51.171Z,1.05
2022-07-26T12:18:29.115Z,0.82
2022-07-26T12:21:06.071Z,0.82
2022-07-26T12:23:48.309Z,1.10
2022-07-26T12:26:26.690Z,1.15
2022-07-26T12:28:55.508Z,0.88
2022-07-26T12:31:29.615Z,1.30
2022-07-26T12:33:56.798Z,1.02
2022-07-26T12:36:26.899Z,0.85
2022-07-26T12:38:56.606Z,1.10
2022-07-26T12:41:37.754Z,1.23
2022-07-26T12:44:09.209Z,1.02
2022-07-26T12:46:36.656Z,1.20
2022-07-26T12:49:03.799Z,1.05
2022-07-26T12:51:30.547Z,0.75
2022-07-26T12:53:56.956Z,1.00
2022-07-26T12:56:23.326Z,0.98
2022-07-26T12:58:49.699Z,1.08
2022-07-26T13:01:16.134Z,0.85
2022-07-26T13:03:42.568Z,4.68
2022-07-26T13:06:08.984Z,1.30
2022-07-26T13:08:35.426Z,1.00
2022-07-26T13:11:01.989Z,0.80
2022-07-26T13:13:28.364Z,0.98
2022-07-26T13:15:54.713Z,1.08
2022-07-26T13:18:21.142Z,1.08
2022-07-26T13:20:47.553Z,1.00
2022-07-26T13:23:21.792Z,0.90
2022-07-26T13:25:49.734Z,1.30
2022-07-26T13:28:16.941Z,1.10
2022-07-26T13:30:43.728Z,0.88
2022-07-26T13:33:10.816Z,0.80
2022-07-26T13:35:39.196Z,0.95
2022-07-26T13:38:08.350Z,0.98
2022-07-26T13:40:34.755Z,1.27
2022-07-26T13:43:01.242Z,0.90
2022-07-26T13:45:29.035Z,0.85
2022-07-26T13:47:57.477Z,0.85
2022-07-26T13:50:27.117Z,0.80
2022-07-26T13:52:57.163Z,0.88
2022-07-26T13:55:24.609Z,0.90
2022-07-26T13:57:56.734Z,1.08
2022-07-26T14:00:28.820Z,1.17
2022-07-26T14:02:57.388Z,0.75
2022-07-26T14:05:24.833Z,0.80
2022-07-26T14:07:51.442Z,1.10
2022-07-26T14:10:18.784Z,0.75
2022-07-26T14:12:45.392Z,0.85
2022-07-26T14:15:16.641Z,0.80
2022-07-26T14:17:47.123Z,1.00
2022-07-26T14:20:14.930Z,0.73
2022-07-26T14:22:41.557Z,0.98
2022-07-26T14:25:08.473Z,1.02
2022-07-26T14:27:34.846Z,0.70
2022-07-26T14:30:01.270Z,0.80
2022-07-26T14:32:27.784Z,1.02
2022-07-26T14:34:57.093Z,1.20
2022-07-26T14:37:42.135Z,0.93
2022-07-26T14:40:10.824Z,0.95
2022-07-26T14:42:37.195Z,0.90
2022-07-26T14:45:04.054Z,0.73
2022-07-26T14:47:30.520Z,0.95
2022-07-26T14:49:56.961Z,0.80
2022-07-26T14:52:23.477Z,0.98
2022-07-26T14:54:49.878Z,0.80
2022-07-26T14:57:16.275Z,0.93
2022-07-26T14:59:43.949Z,0.95
2022-07-26T15:02:12.541Z,1.00
2022-07-26T15:04:38.936Z,1.15
2022-07-26T15:07:05.375Z,0.85
2022-07-26T15:09:31.739Z,0.93
2022-07-26T15:11:58.554Z,1.05
2022-07-26T15:14:24.903Z,0.90
2022-07-26T15:16:51.330Z,0.98
2022-07-26T15:19:21.048Z,1.00
2022-07-26T15:21:53.624Z,1.30
2022-07-26T15:24:20.112Z,1.00
2022-07-26T15:26:49.727Z,1.17
2022-07-26T15:29:16.182Z,1.20
2022-07-26T15:31:43.077Z,1.02
2022-07-26T15:34:11.404Z,1.15
2022-07-26T15:39:16.233Z,0.98
2022-07-26T15:41:43.469Z,1.15
2022-07-26T15:44:12.251Z,1.02
2022-07-26T15:46:39.726Z,1.25
2022-07-26T15:49:07.216Z,1.20
2022-07-26T15:51:33.819Z,1.00
2022-07-26T15:54:00.444Z,1.45
2022-07-26T15:56:26.786Z,1.10
2022-07-26T15:58:53.214Z,1.00
2022-07-26T16:01:19.685Z,0.93
2022-07-26T16:03:47.183Z,0.88
2022-07-26T16:06:13.850Z,1.10
2022-07-26T16:08:58.910Z,1.13
2022-07-26T16:11:27.371Z,1.10
2022-07-26T16:14:01.738Z,1.08
2022-07-26T16:16:29.996Z,1.08
2022-07-26T16:18:56.685Z,0.90
2022-07-26T16:21:23.092Z,0.93
2022-07-26T16:23:50.838Z,1.35
2022-07-26T16:26:17.603Z,0.90
2022-07-26T16:28:44.294Z,1.00
2022-07-26T16:31:10.791Z,0.88
2022-07-26T16:33:37.720Z,1.30
2022-07-26T16:36:12.269Z,1.02
2022-07-26T16:38:38.615Z,1.00
2022-07-26T16:41:05.023Z,1.10
2022-07-26T16:43:31.556Z,0.77
2022-07-26T16:45:57.929Z,0.90
2022-07-26T16:48:24.411Z,1.15
2022-07-26T16:50:50.829Z,1.27
2022-07-26T16:53:17.658Z,1.48
2022-07-26T16:55:45.230Z,0.90
2022-07-26T16:58:11.616Z,1.20
2022-07-26T17:00:38.070Z,1.13
2022-07-26T17:03:04.560Z,1.00
2022-07-26T17:05:30.964Z,1.10
2022-07-26T17:07:57.689Z,1.13
2022-07-26T17:10:25.361Z,1.00
2022-07-26T17:12:51.736Z,0.70
2022-07-26T17:15:18.205Z,1.08
2022-07-26T17:17:48.502Z,0.95
2022-07-26T17:20:15.421Z,1.27
2022-07-26T17:22:41.791Z,1.17
2022-07-26T17:25:08.535Z,0.93
2022-07-26T17:27:35.515Z,1.20
2022-07-26T17:30:06.867Z,1.15
2022-07-26T17:32:34.285Z,1.25
2022-07-26T17:35:00.987Z,1.40
2022-07-26T17:37:28.638Z,1.27
2022-07-26T17:39:55.297Z,1.42
2022-07-26T17:42:24.037Z,1.40
2022-07-26T17:44:50.921Z,1.30
2022-07-26T17:47:28.267Z,1.30
2022-07-26T17:50:08.956Z,1.45
2022-07-26T17:52:40.940Z,1.10
2022-07-26T17:55:07.631Z,1.30
2022-07-26T17:57:34.215Z,1.08
2022-07-26T18:00:05.912Z,1.08
2022-07-26T18:02:32.887Z,1.20
2022-07-26T18:04:59.389Z,1.10
2022-07-26T18:07:26.041Z,1.08
2022-07-26T18:09:52.440Z,1.10
2022-07-26T18:12:18.801Z,1.10
2022-07-26T18:14:45.176Z,1.13
2022-07-26T18:17:11.572Z,1.25
2022-07-26T18:19:37.920Z,1.30
2022-07-26T18:22:06.226Z,1.02
2022-07-26T18:24:33.087Z,1.27
2022-07-26T18:26:59.490Z,1.42
2022-07-26T18:29:25.871Z,1.20
2022-07-26T18:31:52.497Z,1.20
2022-07-26T18:34:18.956Z,1.45
2022-07-26T18:36:45.322Z,1.00
2022-07-26T18:39:12.474Z,1.05
2022-07-26T18:41:39.510Z,1.35
2022-07-26T18:44:05.875Z,1.50
2022-07-26T18:46:32.342Z,1.30
2022-07-26T18:49:00.491Z,1.52
2022-07-26T18:53:55.400Z,1.17
2022-07-26T18:56:21.825Z,1.40
2022-07-26T18:58:48.329Z,1.20
2022-07-26T19:01:14.883Z,1.20
2022-07-26T19:03:41.439Z,1.40
2022-07-26T19:06:08.564Z,1.33
2022-07-26T19:08:35.184Z,1.60
2022-07-26T19:11:01.914Z,1.65
2022-07-26T19:13:28.312Z,1.70
2022-07-26T19:15:54.825Z,1.30
2022-07-26T19:18:21.503Z,1.75
2022-07-26T19:20:47.943Z,1.45
2022-07-26T19:23:14.399Z,1.70
2022-07-26T19:25:41.373Z,1.83
2022-07-26T19:28:09.131Z,1.80
2022-07-26T19:30:36.439Z,1.98
2022-07-26T19:33:02.999Z,2.35
2022-07-26T19:35:29.846Z,1.77
2022-07-26T19:37:56.580Z,2.08
2022-07-26T19:40:23.193Z,2.20
2022-07-26T19:42:49.597Z,2.28
2022-07-26T19:45:16.323Z,2.58
2022-07-26T19:47:42.988Z,2.40
2022-07-26T19:50:09.786Z,2.55
2022-07-26T19:52:36.197Z,2.30
2022-07-26T19:55:02.862Z,2.55
2022-07-26T19:57:29.389Z,1.90
2022-07-26T19:59:56.216Z,2.17
2022-07-26T20:02:22.846Z,2.45
2022-07-26T20:04:49.620Z,2.17
2022-07-26T20:07:19.133Z,2.10
2022-07-26T20:09:50.439Z,2.17
2022-07-26T20:12:18.280Z,2.17
2022-07-26T20:14:45.308Z,2.50
2022-07-26T20:17:12.823Z,2.30
2022-07-26T20:19:40.524Z,2.10
2022-07-26T20:22:06.978Z,2.10
2022-07-26T20:24:33.431Z,2.10
2022-07-26T20:26:59.807Z,2.97
2022-07-26T20:29:26.350Z,2.17
2022-07-26T20:31:52.716Z,1.95
2022-07-26T20:34:19.218Z,2.05
2022-07-26T20:36:46.289Z,2.00
2022-07-26T20:39:13.243Z,2.28
2022-07-26T20:41:40.126Z,2.08
2022-07-26T20:44:06.512Z,2.28
2022-07-26T20:46:33.459Z,2.22
2022-07-26T20:49:00.008Z,2.00
2022-07-26T20:51:26.425Z,1.98
2022-07-26T20:53:52.891Z,1.95
2022-07-26T20:56:19.345Z,2.10
2022-07-26T20:58:45.740Z,1.95
2022-07-26T21:01:13.761Z,2.28
2022-07-26T21:03:40.361Z,2.05
2022-07-26T21:06:06.913Z,1.90
2022-07-26T21:08:33.557Z,2.08
2022-07-26T21:11:00.217Z,2.05
2022-07-26T21:13:28.964Z,2.38
2022-07-26T21:15:55.418Z,2.03
2022-07-26T21:18:22.361Z,2.20
2022-07-26T21:20:48.777Z,2.08
2022-07-26T21:23:17.715Z,2.00
2022-07-26T21:25:45.028Z,2.22
2022-07-26T21:28:11.458Z,2.08
2022-07-26T21:30:38.247Z,2.20
2022-07-26T21:33:05.401Z,2.05
2022-07-26T21:35:32.277Z,2.05
2022-07-26T21:37:58.694Z,2.13
2022-07-26T21:40:25.546Z,2.15
2022-07-26T21:42:51.932Z,2.08
2022-07-26T21:45:18.365Z,2.63
2022-07-26T21:47:44.814Z,2.30
2022-07-26T21:50:12.042Z,1.98
2022-07-26T21:52:38.498Z,2.38
2022-07-26T21:55:08.856Z,2.30
2022-07-26T21:57:35.847Z,2.25
2022-07-26T22:00:03.935Z,2.17
2022-07-26T22:02:30.907Z,2.25
2022-07-26T22:04:57.789Z,2.42
2022-07-26T22:07:24.369Z,2.00
2022-07-26T22:09:50.800Z,2.30
2022-07-26T22:12:17.250Z,1.95
2022-07-26T22:14:43.668Z,2.17
2022-07-26T22:17:10.114Z,2.20
2022-07-26T22:19:36.507Z,2.13
2022-07-26T22:22:05.516Z,2.20
2022-07-26T22:24:32.190Z,2.38
2022-07-26T22:26:58.699Z,2.30
2022-07-26T22:29:25.130Z,2.35
2022-07-26T22:31:51.624Z,2.50
2022-07-26T22:34:18.075Z,2.20
2022-07-26T22:36:45.633Z,2.53
2022-07-26T22:39:12.505Z,2.50
2022-07-26T22:42:04.921Z,2.55
2022-07-26T22:44:25.630Z,2.60
2022-07-26T22:46:51.990Z,2.47
2022-07-26T22:49:18.422Z,2.25
2022-07-26T22:51:44.847Z,2.20
2022-07-26T22:54:11.224Z,2.30
2022-07-26T22:56:37.654Z,2.10
2022-07-26T22:59:04.156Z,2.50
2022-07-26T23:01:30.584Z,2.30
2022-07-26T23:03:57.159Z,2.28
2022-07-26T23:06:31.390Z,2.20
2022-07-26T23:08:58.776Z,2.33
2022-07-26T23:11:25.270Z,2.38
2022-07-26T23:13:51.699Z,2.08
2022-07-26T23:16:25.815Z,2.22
2022-07-26T23:18:52.522Z,2.42
2022-07-26T23:21:18.938Z,2.20
2022-07-26T23:23:45.314Z,2.10
2022-07-26T23:26:11.826Z,2.00
2022-07-26T23:28:38.646Z,2.20
2022-07-26T23:31:07.474Z,2.10
2022-07-26T23:36:20.332Z,2.35
2022-07-26T23:38:46.678Z,2.42
2022-07-26T23:41:13.080Z,2.30
2022-07-26T23:43:39.488Z,2.05
2022-07-26T23:46:05.868Z,2.22
2022-07-26T23:48:32.315Z,2.50
2022-07-26T23:50:58.725Z,2.42
2022-07-26T23:53:26.726Z,2.22
2022-07-26T23:55:54.006Z,2.10
2022-07-26T23:58:20.393Z,2.00
